createdAt,value
2018-12-19T00:02:14.230Z,267.47
2018-12-19T00:04:53.619Z,320.73
2018-12-19T00:07:32.411Z,297.50
2018-12-19T00:10:14.891Z,287.93
2018-12-19T00:12:57.671Z,273.17
2018-12-19T00:15:37.513Z,308.93
2018-12-19T00:18:21.273Z,316.43
2018-12-19T00:21:02.847Z,284.90
2018-12-19T00:23:41.873Z,281.33
2018-12-19T00:26:21.967Z,324.10
2018-12-19T00:29:01.585Z,280.87
2018-12-19T00:31:38.952Z,294.97
2018-12-19T00:34:21.316Z,287.40
2018-12-19T00:36:59.606Z,286.83
2018-12-19T00:39:37.476Z,316.27
2018-12-19T00:42:17.445Z,317.93
2018-12-19T00:44:57.053Z,293.37
2018-12-19T00:47:40.676Z,261.33
2018-12-19T00:50:21.762Z,297.20
2018-12-19T00:53:02.729Z,306.80
2018-12-19T00:55:42.866Z,311.37
2018-12-19T00:58:22.536Z,191.77
2018-12-19T01:01:02.044Z,275.70
2018-12-19T01:03:41.575Z,251.90
2018-12-19T01:06:23.664Z,258.20
2018-12-19T01:09:02.801Z,250.63
2018-12-19T01:11:41.263Z,261.87
2018-12-19T01:14:20.618Z,270.40
2018-12-19T01:16:59.576Z,273.17
2018-12-19T01:19:42.484Z,267.30
2018-12-19T01:22:21.728Z,280.47
2018-12-19T01:25:02.895Z,267.87
2018-12-19T01:27:45.361Z,272.63
2018-12-19T01:30:26.824Z,227.67
2018-12-19T01:33:08.792Z,299.47
2018-12-19T01:35:49.769Z,254.97
2018-12-19T01:38:30.698Z,247.97
2018-12-19T01:41:10.690Z,265.07
2018-12-19T01:43:52.078Z,254.43
2018-12-19T01:46:31.548Z,261.40
2018-12-19T01:49:15.495Z,235.60
2018-12-19T01:51:56.177Z,253.17
2018-12-19T01:54:34.830Z,241.07
2018-12-19T01:57:13.131Z,256.00
2018-12-19T01:59:54.225Z,247.07
2018-12-19T02:02:36.747Z,216.97
2018-12-19T02:05:15.783Z,197.40
2018-12-19T02:07:56.745Z,242.77
2018-12-19T02:10:36.415Z,233.03
2018-12-19T02:13:16.437Z,277.73
2018-12-19T02:15:56.683Z,224.10
2018-12-19T02:18:39.912Z,238.67
2018-12-19T02:21:21.052Z,244.60
2018-12-19T02:23:54.671Z,258.20
2018-12-19T02:26:36.233Z,227.23
2018-12-19T02:29:13.352Z,222.97
2018-12-19T02:31:51.093Z,261.87
2018-12-19T02:34:28.809Z,223.87
2018-12-19T02:37:09.819Z,219.00
2018-12-19T02:39:50.795Z,218.43
2018-12-19T02:42:30.428Z,219.03
2018-12-19T02:45:11.770Z,238.13
2018-12-19T02:47:49.909Z,232.33
2018-12-19T02:50:33.704Z,216.00
2018-12-19T02:53:12.351Z,223.57
2018-12-19T02:55:52.780Z,148.57
2018-12-19T02:58:35.867Z,231.87
2018-12-19T03:01:14.161Z,211.60
2018-12-19T03:03:54.231Z,216.13
2018-12-19T03:06:33.318Z,218.77
2018-12-19T03:09:15.139Z,202.57
2018-12-19T03:11:54.578Z,212.47
2018-12-19T03:14:34.226Z,206.73
2018-12-19T03:17:13.125Z,171.77
2018-12-19T03:19:53.326Z,220.60
2018-12-19T03:22:33.365Z,217.97
2018-12-19T03:25:13.703Z,227.37
2018-12-19T03:27:54.163Z,197.77
2018-12-19T03:30:35.413Z,206.87
2018-12-19T03:33:14.736Z,223.63
2018-12-19T03:35:54.086Z,185.00
2018-12-19T03:38:33.708Z,189.03
2018-12-19T03:41:14.187Z,211.53
2018-12-19T03:43:53.223Z,131.80
2018-12-19T03:46:32.420Z,211.33
2018-12-19T03:49:14.772Z,163.57
2018-12-19T03:51:55.824Z,176.87
2018-12-19T03:54:35.832Z,197.47
2018-12-19T03:57:15.620Z,196.33
2018-12-19T04:00:03.969Z,186.10
2018-12-19T04:02:42.178Z,175.13
2018-12-19T04:05:22.532Z,171.17
2018-12-19T04:08:02.057Z,151.40
2018-12-19T04:10:43.066Z,131.43
2018-12-19T04:13:23.627Z,145.80
2018-12-19T04:16:00.982Z,151.40
2018-12-19T04:18:44.340Z,179.37
2018-12-19T04:21:27.249Z,156.87
2018-12-19T04:24:08.670Z,174.47
2018-12-19T04:26:49.162Z,156.00
2018-12-19T04:29:29.387Z,111.27
2018-12-19T04:32:07.532Z,157.07
2018-12-19T04:34:44.486Z,130.87
2018-12-19T04:37:23.568Z,146.67
2018-12-19T04:40:05.763Z,154.70
2018-12-19T04:42:47.246Z,145.90
2018-12-19T04:45:29.189Z,150.77
2018-12-19T04:48:03.894Z,145.60
2018-12-19T04:50:46.615Z,158.20
2018-12-19T04:53:25.411Z,139.80
2018-12-19T04:56:06.589Z,143.83
2018-12-19T04:58:57.063Z,136.77
2018-12-19T05:04:44.374Z,79.67
2018-12-19T05:07:23.932Z,148.40
2018-12-19T05:10:02.588Z,129.67
2018-12-19T05:12:39.604Z,159.87
2018-12-19T05:15:16.065Z,116.73
2018-12-19T05:17:53.765Z,149.63
2018-12-19T05:20:26.241Z,125.57
2018-12-19T05:23:04.451Z,120.87
2018-12-19T05:25:44.009Z,109.23
2018-12-19T05:28:23.051Z,140.70
2018-12-19T05:31:03.699Z,142.80
2018-12-19T05:33:44.616Z,135.57
2018-12-19T05:36:24.669Z,132.07
2018-12-19T05:39:06.448Z,126.73
2018-12-19T05:41:46.743Z,129.10
2018-12-19T05:44:26.132Z,134.53
2018-12-19T05:47:06.216Z,131.03
2018-12-19T05:49:46.343Z,128.20
2018-12-19T05:52:31.329Z,126.77
2018-12-19T05:55:09.836Z,96.83
2018-12-19T05:57:50.372Z,115.67
2018-12-19T06:00:30.829Z,90.93
2018-12-19T06:03:14.349Z,106.47
2018-12-19T06:05:56.737Z,109.83
2018-12-19T06:08:34.406Z,73.97
2018-12-19T06:11:15.290Z,130.10
2018-12-19T06:13:56.080Z,128.27
2018-12-19T06:16:37.273Z,77.37
2018-12-19T06:19:17.263Z,123.57
2018-12-19T06:21:55.220Z,125.00
2018-12-19T06:24:36.520Z,123.60
2018-12-19T06:27:16.159Z,108.30
2018-12-19T06:29:56.516Z,99.93
2018-12-19T06:32:36.714Z,93.63
2018-12-19T06:35:17.403Z,84.17
2018-12-19T06:37:58.509Z,105.20
2018-12-19T06:40:39.387Z,92.40
2018-12-19T06:43:18.928Z,87.20
2018-12-19T06:46:00.891Z,94.70
2018-12-19T06:48:40.907Z,93.20
2018-12-19T06:51:24.027Z,89.13
2018-12-19T06:54:03.022Z,93.40
2018-12-19T06:56:43.280Z,87.73
2018-12-19T06:59:23.833Z,70.70
2018-12-19T07:02:02.211Z,102.47
2018-12-19T07:04:43.337Z,86.77
2018-12-19T07:07:23.724Z,80.57
2018-12-19T07:10:02.771Z,56.40
2018-12-19T07:12:42.579Z,59.90
2018-12-19T07:15:26.141Z,74.23
2018-12-19T07:18:06.284Z,79.20
2018-12-19T07:20:43.845Z,76.27
2018-12-19T07:23:22.545Z,81.17
2018-12-19T07:26:06.195Z,72.37
2018-12-19T07:28:43.603Z,84.27
2018-12-19T07:31:24.489Z,80.53
2018-12-19T07:34:03.107Z,70.93
2018-12-19T07:36:45.619Z,72.97
2018-12-19T07:39:24.723Z,79.30
2018-12-19T07:42:02.507Z,76.90
2018-12-19T07:44:40.456Z,66.07
2018-12-19T07:47:21.509Z,57.03
2018-12-19T07:50:03.949Z,57.20
2018-12-19T07:52:45.526Z,73.23
2018-12-19T07:55:27.299Z,67.67
2018-12-19T07:58:05.444Z,64.17
2018-12-19T08:00:44.731Z,63.57
2018-12-19T08:03:23.751Z,66.70
2018-12-19T08:06:01.063Z,55.37
2018-12-19T08:08:33.359Z,62.63
2018-12-19T08:11:16.139Z,57.93
2018-12-19T08:13:57.964Z,63.33
2018-12-19T08:16:35.752Z,52.03
2018-12-19T08:19:16.846Z,53.50
2018-12-19T08:21:58.160Z,57.90
2018-12-19T08:24:38.396Z,46.73
2018-12-19T08:27:18.252Z,52.07
2018-12-19T08:30:00.034Z,56.33
2018-12-19T08:32:43.322Z,51.87
2018-12-19T08:35:23.723Z,58.30
2018-12-19T08:38:03.678Z,58.47
2018-12-19T08:40:45.547Z,58.13
2018-12-19T08:43:27.614Z,54.20
2018-12-19T08:46:14.580Z,50.23
2018-12-19T08:48:57.121Z,54.97
2018-12-19T08:51:37.287Z,52.50
2018-12-19T08:54:19.951Z,50.50
2018-12-19T08:56:58.675Z,54.40
2018-12-19T08:59:39.023Z,53.93
2018-12-19T09:02:19.954Z,50.03
2018-12-19T09:04:58.815Z,45.73
2018-12-19T09:07:42.819Z,48.90
2018-12-19T09:10:24.948Z,54.87
2018-12-19T09:13:04.767Z,52.30
2018-12-19T09:15:47.253Z,43.97
2018-12-19T09:18:28.471Z,54.63
2018-12-19T09:21:09.901Z,52.97
2018-12-19T09:23:52.887Z,49.20
2018-12-19T09:26:35.083Z,51.07
2018-12-19T09:29:17.476Z,47.27
2018-12-19T09:31:58.510Z,43.70
2018-12-19T09:34:41.145Z,43.97
2018-12-19T09:37:20.456Z,44.60
2018-12-19T09:40:00.067Z,44.70
2018-12-19T09:42:40.090Z,44.20
2018-12-19T09:45:22.280Z,54.67
2018-12-19T09:48:04.245Z,45.70
2018-12-19T09:50:48.060Z,46.53
2018-12-19T09:53:29.399Z,34.90
2018-12-19T09:56:11.065Z,41.57
2018-12-19T09:58:49.490Z,50.20
2018-12-19T10:01:29.067Z,34.33
2018-12-19T10:04:13.490Z,40.03
2018-12-19T10:06:53.392Z,40.13
2018-12-19T10:09:36.053Z,40.47
2018-12-19T10:12:17.135Z,42.03
2018-12-19T10:14:59.302Z,40.00
2018-12-19T10:17:40.879Z,40.43
2018-12-19T10:20:20.181Z,46.60
2018-12-19T10:23:01.847Z,38.13
2018-12-19T10:25:42.539Z,42.63
2018-12-19T10:28:27.004Z,38.00
2018-12-19T10:31:06.968Z,41.30
2018-12-19T10:33:47.585Z,32.73
2018-12-19T10:36:30.574Z,37.17
2018-12-19T10:39:16.943Z,38.33
2018-12-19T10:41:56.786Z,39.03
2018-12-19T10:44:37.399Z,37.03
2018-12-19T10:47:14.643Z,35.27
2018-12-19T10:49:56.245Z,39.13
2018-12-19T10:52:37.596Z,34.47
2018-12-19T10:55:19.140Z,36.13
2018-12-19T10:57:59.266Z,39.17
2018-12-19T11:01:10.646Z,39.27
2018-12-19T11:03:48.964Z,41.60
2018-12-19T11:06:30.499Z,40.07
2018-12-19T11:09:12.603Z,32.47
2018-12-19T11:11:53.329Z,34.60
2018-12-19T11:14:32.550Z,31.40
2018-12-19T11:17:11.109Z,31.10
2018-12-19T11:19:53.509Z,40.40
2018-12-19T11:22:32.793Z,34.43
2018-12-19T11:25:13.565Z,31.10
2018-12-19T11:27:54.175Z,33.83
2018-12-19T11:30:35.545Z,26.67
2018-12-19T11:33:17.066Z,37.87
2018-12-19T11:35:58.102Z,31.03
2018-12-19T11:38:37.016Z,33.70
2018-12-19T11:41:18.140Z,33.63
2018-12-19T11:43:58.748Z,31.40
2018-12-19T11:46:41.916Z,40.50
2018-12-19T11:49:19.938Z,34.80
2018-12-19T11:52:01.764Z,31.27
2018-12-19T11:54:41.353Z,33.57
2018-12-19T11:57:19.690Z,28.77
2018-12-19T12:00:01.466Z,27.87
2018-12-19T12:02:41.657Z,34.17
2018-12-19T12:05:22.873Z,38.47
2018-12-19T12:08:02.661Z,33.00
2018-12-19T12:10:41.830Z,23.77
2018-12-19T12:13:20.265Z,30.10
2018-12-19T12:16:03.138Z,24.40
2018-12-19T12:18:43.541Z,24.83
2018-12-19T12:21:27.323Z,31.83
2018-12-19T12:24:11.754Z,32.07
2018-12-19T12:26:50.033Z,24.13
2018-12-19T12:29:31.914Z,25.07
2018-12-19T12:32:15.521Z,25.13
2018-12-19T12:34:56.731Z,30.57
2018-12-19T12:37:39.449Z,32.40
2018-12-19T12:40:15.059Z,31.00
2018-12-19T12:42:56.197Z,28.13
2018-12-19T12:45:37.139Z,35.00
2018-12-19T12:48:17.079Z,28.80
2018-12-19T12:50:56.421Z,25.07
2018-12-19T12:53:34.936Z,30.37
2018-12-19T12:56:14.353Z,26.80
2018-12-19T12:58:52.017Z,28.50
2018-12-19T13:01:30.632Z,30.60
2018-12-19T13:04:10.472Z,25.87
2018-12-19T13:06:53.255Z,29.67
2018-12-19T13:09:33.633Z,28.10
2018-12-19T13:12:15.695Z,32.00
2018-12-19T13:14:56.989Z,28.27
2018-12-19T13:17:36.360Z,26.83
2018-12-19T13:20:16.264Z,27.87
2018-12-19T13:22:56.689Z,27.83
2018-12-19T13:25:36.953Z,23.97
2018-12-19T13:28:17.268Z,31.87
2018-12-19T13:31:00.056Z,23.63
2018-12-19T13:33:41.472Z,29.70
2018-12-19T13:36:21.988Z,29.77
2018-12-19T13:39:02.544Z,32.53
2018-12-19T13:41:41.828Z,29.60
2018-12-19T13:44:24.368Z,39.87
2018-12-19T13:47:05.177Z,29.53
2018-12-19T13:49:46.326Z,31.30
2018-12-19T13:52:24.874Z,29.87
2018-12-19T13:55:04.910Z,33.83
2018-12-19T13:57:41.771Z,27.13
2018-12-19T14:00:22.614Z,30.20
2018-12-19T14:02:58.951Z,29.27
2018-12-19T14:05:37.837Z,27.73
2018-12-19T14:08:20.555Z,34.70
2018-12-19T14:11:01.894Z,30.27
2018-12-19T14:13:40.668Z,30.53
2018-12-19T14:16:20.704Z,29.70
2018-12-19T14:19:04.176Z,28.30
2018-12-19T14:21:40.808Z,31.37
2018-12-19T14:24:19.949Z,29.40
2018-12-19T14:26:56.979Z,33.37
2018-12-19T14:29:40.309Z,30.67
2018-12-19T14:32:19.257Z,30.50
2018-12-19T14:35:01.611Z,26.57
2018-12-19T14:37:38.757Z,30.10
2018-12-19T14:40:19.781Z,31.83
2018-12-19T14:42:57.575Z,27.93
2018-12-19T14:45:34.900Z,29.10
2018-12-19T14:48:17.981Z,31.50
2018-12-19T14:50:58.308Z,29.07
2018-12-19T14:53:38.773Z,26.17
2018-12-19T14:56:18.767Z,29.17
2018-12-19T14:58:59.376Z,27.23
2018-12-19T15:01:39.751Z,30.27
2018-12-19T15:04:22.613Z,30.80
2018-12-19T15:07:03.028Z,40.50
2018-12-19T15:09:42.846Z,29.40
2018-12-19T15:12:25.752Z,28.70
2018-12-19T15:15:04.303Z,30.40
2018-12-19T15:17:44.244Z,24.00
2018-12-19T15:20:24.982Z,32.20
2018-12-19T15:23:07.882Z,30.43
2018-12-19T15:25:47.066Z,24.60
2018-12-19T15:28:28.358Z,25.90
2018-12-19T15:31:08.672Z,31.13
2018-12-19T15:33:50.989Z,26.93
2018-12-19T15:36:29.626Z,29.27
2018-12-19T15:39:10.042Z,28.43
2018-12-19T15:41:53.485Z,31.00
2018-12-19T15:44:35.271Z,30.73
2018-12-19T15:47:11.196Z,28.40
2018-12-19T15:49:52.708Z,29.10
2018-12-19T15:52:31.692Z,28.90
2018-12-19T15:55:11.648Z,23.03
2018-12-19T15:57:51.911Z,27.23
2018-12-19T16:00:31.673Z,24.87
2018-12-19T16:03:10.940Z,28.90
2018-12-19T16:05:53.732Z,27.87
2018-12-19T16:08:31.632Z,27.27
2018-12-19T16:11:11.693Z,26.80
2018-12-19T16:13:52.052Z,27.20
2018-12-19T16:16:31.794Z,26.63
2018-12-19T16:19:12.986Z,33.97
2018-12-19T16:21:54.818Z,27.60
2018-12-19T16:24:39.915Z,28.57
2018-12-19T16:27:17.631Z,26.37
2018-12-19T16:29:56.102Z,26.90
2018-12-19T16:32:35.038Z,31.77
2018-12-19T16:35:16.266Z,28.07
2018-12-19T16:37:57.104Z,32.73
2018-12-19T16:40:36.837Z,29.43
2018-12-19T16:43:16.849Z,27.53
2018-12-19T16:45:55.592Z,25.97
2018-12-19T16:48:31.608Z,28.20
2018-12-19T16:51:14.322Z,27.53
2018-12-19T16:53:51.832Z,28.23
2018-12-19T16:56:30.858Z,34.47
2018-12-19T16:59:15.272Z,24.00
2018-12-19T17:01:52.388Z,27.60
2018-12-19T17:04:32.612Z,29.77
2018-12-19T17:07:14.343Z,26.47
2018-12-19T17:09:56.959Z,31.80
2018-12-19T17:12:37.469Z,32.23
2018-12-19T17:15:16.494Z,27.17
2018-12-19T17:17:59.499Z,31.07
2018-12-19T17:20:39.941Z,26.77
2018-12-19T17:23:19.538Z,29.10
2018-12-19T17:25:59.889Z,25.53
2018-12-19T17:28:37.663Z,33.83
2018-12-19T17:31:17.585Z,28.27
2018-12-19T17:33:56.869Z,29.07
2018-12-19T17:36:36.786Z,26.83
2018-12-19T17:39:13.280Z,35.17
2018-12-19T17:41:54.427Z,30.33
2018-12-19T17:44:38.093Z,32.73
2018-12-19T17:47:17.193Z,30.17
2018-12-19T17:49:57.153Z,32.53
2018-12-19T17:52:34.117Z,26.60
2018-12-19T17:55:14.904Z,32.37
2018-12-19T17:57:55.623Z,31.60
2018-12-19T18:00:36.589Z,31.23
2018-12-19T18:03:13.785Z,29.53
2018-12-19T18:05:56.022Z,33.50
2018-12-19T18:08:31.587Z,36.27
2018-12-19T18:11:06.623Z,34.20
2018-12-19T18:13:42.399Z,32.43
2018-12-19T18:16:16.146Z,39.23
2018-12-19T18:18:58.223Z,39.27
2018-12-19T18:21:32.433Z,30.30
2018-12-19T18:24:07.237Z,40.00
2018-12-19T18:26:42.261Z,36.13
2018-12-19T18:29:18.919Z,35.30
2018-12-19T18:31:56.128Z,35.63
2018-12-19T18:34:30.472Z,35.23
2018-12-19T18:37:04.691Z,34.10
2018-12-19T18:39:41.178Z,41.37
2018-12-19T18:42:16.397Z,35.23
2018-12-19T18:44:50.589Z,40.27
2018-12-19T18:47:23.904Z,36.20
2018-12-19T18:50:03.145Z,37.83
2018-12-19T18:52:43.607Z,38.80
2018-12-19T18:55:22.715Z,38.37
2018-12-19T18:58:04.944Z,37.83
2018-12-19T19:00:46.333Z,42.03
2018-12-19T19:03:31.049Z,37.67
2018-12-19T19:06:10.014Z,45.10
2018-12-19T19:08:50.553Z,43.33
2018-12-19T19:11:29.637Z,38.80
2018-12-19T19:14:11.279Z,42.27
2018-12-19T19:16:50.481Z,38.33
2018-12-19T19:19:24.678Z,46.63
2018-12-19T19:22:03.650Z,39.83
2018-12-19T19:24:39.619Z,38.30
2018-12-19T19:27:14.769Z,41.07
2018-12-19T19:29:52.908Z,50.20
2018-12-19T19:32:28.079Z,43.63
2018-12-19T19:35:05.612Z,40.87
2018-12-19T19:37:42.350Z,40.10
2018-12-19T19:40:16.780Z,42.23
2018-12-19T19:42:56.550Z,44.40
2018-12-19T19:45:36.146Z,46.07
2018-12-19T19:48:14.557Z,44.43
2018-12-19T19:50:54.891Z,49.27
2018-12-19T19:53:40.479Z,44.27
2018-12-19T19:56:14.075Z,55.77
2018-12-19T19:58:46.264Z,45.13
2018-12-19T20:01:23.342Z,48.33
2018-12-19T20:03:57.979Z,50.03
2018-12-19T20:06:36.298Z,48.13
2018-12-19T20:09:14.149Z,50.53
2018-12-19T20:11:47.824Z,51.63
2018-12-19T20:14:28.128Z,52.87
2018-12-19T20:17:02.401Z,49.60
2018-12-19T20:19:36.048Z,49.73
2018-12-19T20:22:11.061Z,52.13
2018-12-19T20:24:46.145Z,53.43
2018-12-19T20:27:24.166Z,52.10
2018-12-19T20:30:02.810Z,55.63
2018-12-19T20:32:38.442Z,51.07
2018-12-19T20:35:16.242Z,52.90
2018-12-19T20:37:56.329Z,55.07
2018-12-19T20:40:29.956Z,54.53
2018-12-19T20:43:08.083Z,54.27
2018-12-19T20:45:42.443Z,49.53
2018-12-19T20:48:20.465Z,50.90
2018-12-19T20:51:01.211Z,48.93
2018-12-19T20:53:41.703Z,54.03
2018-12-19T20:56:21.828Z,54.30
2018-12-19T20:59:01.404Z,54.33
2018-12-19T21:01:40.698Z,64.40
2018-12-19T21:04:21.423Z,52.97
2018-12-19T21:07:00.976Z,55.37
2018-12-19T21:09:41.828Z,52.90
2018-12-19T21:12:18.734Z,56.03
2018-12-19T21:15:01.436Z,56.40
2018-12-19T21:17:42.244Z,55.67
2018-12-19T21:20:26.210Z,58.43
2018-12-19T21:23:07.365Z,53.07
2018-12-19T21:25:50.389Z,50.67
2018-12-19T21:28:30.866Z,57.83
2018-12-19T21:31:13.921Z,66.00
2018-12-19T21:33:53.914Z,54.53
2018-12-19T21:36:35.307Z,54.97
2018-12-19T21:39:18.311Z,54.47
2018-12-19T21:41:56.041Z,52.47
2018-12-19T21:44:38.001Z,53.00
2018-12-19T21:47:17.452Z,61.07
2018-12-19T21:49:58.181Z,52.43
2018-12-19T21:52:40.439Z,56.13
2018-12-19T21:55:20.636Z,58.83
2018-12-19T21:57:59.479Z,60.17
2018-12-19T22:00:41.083Z,53.67
2018-12-19T22:03:18.241Z,51.90
2018-12-19T22:05:57.913Z,54.90
2018-12-19T22:08:36.165Z,59.07
2018-12-19T22:11:16.559Z,52.70
2018-12-19T22:14:00.949Z,56.90
2018-12-19T22:16:47.678Z,61.27
2018-12-19T22:19:29.683Z,51.70
2018-12-19T22:22:08.374Z,52.00
2018-12-19T22:24:47.262Z,52.10
2018-12-19T22:27:29.871Z,56.77
2018-12-19T22:30:12.824Z,53.90
2018-12-19T22:32:53.353Z,63.90
2018-12-19T22:35:34.530Z,50.53
2018-12-19T22:38:16.466Z,55.67
2018-12-19T22:40:56.897Z,54.43
2018-12-19T22:43:31.558Z,53.43
2018-12-19T22:46:09.330Z,53.27
2018-12-19T22:48:46.462Z,59.60
2018-12-19T22:51:28.426Z,52.03
2018-12-19T22:54:09.358Z,53.60
2018-12-19T22:56:48.448Z,63.53
2018-12-19T22:59:27.217Z,61.17
2018-12-19T23:02:10.005Z,65.50
2018-12-19T23:04:46.158Z,61.83
2018-12-19T23:07:28.466Z,63.07
2018-12-19T23:10:10.258Z,65.00
2018-12-19T23:12:52.009Z,65.67
2018-12-19T23:15:31.740Z,60.40
2018-12-19T23:18:19.008Z,72.10
2018-12-19T23:20:57.448Z,68.13
2018-12-19T23:23:37.822Z,62.13
2018-12-19T23:26:16.964Z,66.93
2018-12-19T23:28:57.799Z,56.07
2018-12-19T23:31:38.762Z,58.23
2018-12-19T23:34:18.671Z,60.17
2018-12-19T23:36:58.224Z,56.90
2018-12-19T23:39:34.957Z,62.10
2018-12-19T23:42:15.201Z,61.00
2018-12-19T23:44:54.443Z,59.80
2018-12-19T23:47:39.053Z,61.93
2018-12-19T23:50:19.067Z,57.90
2018-12-19T23:52:58.809Z,64.27
2018-12-19T23:55:42.332Z,61.93
2018-12-19T23:58:22.007Z,70.90
